createdAt,value
2023-02-27T00:02:03.967Z,100839.72
2023-02-27T00:04:32.031Z,100842.95
2023-02-27T00:06:59.982Z,100843.48
2023-02-27T00:09:28.069Z,100848.64
2023-02-27T00:11:56.136Z,100846.69
2023-02-27T00:14:24.097Z,100848.88
2023-02-27T00:16:52.295Z,100848.86
2023-02-27T00:19:21.669Z,100854.83
2023-02-27T00:21:49.544Z,100857.38
2023-02-27T00:24:17.499Z,100860.58
2023-02-27T00:26:45.444Z,100864.95
2023-02-27T00:29:13.337Z,100872.81
2023-02-27T00:31:41.333Z,100873.52
2023-02-27T00:34:09.329Z,100874.00
2023-02-27T00:36:37.627Z,100871.54
2023-02-27T00:39:05.632Z,100877.88
2023-02-27T00:41:34.080Z,100877.09
2023-02-27T00:44:02.096Z,100876.02
2023-02-27T00:46:30.163Z,100874.84
2023-02-27T00:48:58.252Z,100874.80
2023-02-27T00:51:27.353Z,100876.10
2023-02-27T00:53:56.627Z,100871.59
2023-02-27T00:56:24.566Z,100870.75
2023-02-27T00:58:52.477Z,100872.48
2023-02-27T01:01:23.022Z,100873.92
2023-02-27T01:03:51.009Z,100871.10
2023-02-27T01:06:18.991Z,100867.05
2023-02-27T01:08:49.782Z,100866.73
2023-02-27T01:11:18.214Z,100866.02
2023-02-27T01:13:46.395Z,100864.23
2023-02-27T01:16:14.947Z,100868.44
2023-02-27T01:18:45.912Z,100872.40
2023-02-27T01:21:13.916Z,100870.98
2023-02-27T01:23:42.132Z,100872.45
2023-02-27T01:26:10.823Z,100871.67
2023-02-27T01:28:38.795Z,100874.86
2023-02-27T01:31:07.244Z,100869.28
2023-02-27T01:33:35.475Z,100876.32
2023-02-27T01:36:03.640Z,100881.43
2023-02-27T01:38:31.884Z,100883.23
2023-02-27T01:41:01.753Z,100885.57
2023-02-27T01:43:29.669Z,100883.27
2023-02-27T01:45:59.465Z,100879.41
2023-02-27T01:48:39.745Z,100878.20
2023-02-27T01:51:14.150Z,100879.58
2023-02-27T01:53:46.847Z,100885.88
2023-02-27T01:56:20.039Z,100887.38
2023-02-27T01:58:51.842Z,100889.95
2023-02-27T02:01:21.112Z,100891.80
2023-02-27T02:04:03.820Z,100887.88
2023-02-27T02:06:36.537Z,100893.13
2023-02-27T02:09:08.862Z,100893.17
2023-02-27T02:11:38.281Z,100895.96
2023-02-27T02:14:11.079Z,100894.80
2023-02-27T02:16:54.689Z,100896.44
2023-02-27T02:19:41.039Z,100897.31
2023-02-27T02:22:45.870Z,100893.08
2023-02-27T02:25:46.756Z,100894.58
2023-02-27T02:28:53.099Z,100895.29
2023-02-27T02:31:21.226Z,100900.63
2023-02-27T02:34:10.490Z,100905.36
2023-02-27T02:37:07.096Z,100913.36
2023-02-27T02:40:04.709Z,100913.52
2023-02-27T02:42:43.927Z,100917.65
2023-02-27T02:45:31.391Z,100919.73
2023-02-27T02:48:29.488Z,100923.05
2023-02-27T02:51:05.146Z,100927.65
2023-02-27T02:53:56.927Z,100930.61
2023-02-27T02:56:45.686Z,100932.54
2023-02-27T02:59:51.390Z,100938.02
2023-02-27T03:02:41.623Z,100941.98
2023-02-27T03:05:15.738Z,100943.16
2023-02-27T03:07:52.230Z,100947.15
2023-02-27T03:10:33.783Z,100951.89
2023-02-27T03:13:12.838Z,100957.78
2023-02-27T03:15:46.067Z,100958.80
2023-02-27T03:18:20.888Z,100960.04
2023-02-27T03:21:03.487Z,100962.75
2023-02-27T03:23:44.587Z,100965.64
2023-02-27T03:26:19.696Z,100966.55
2023-02-27T03:29:06.150Z,100969.75
2023-02-27T03:31:37.457Z,100973.99
2023-02-27T03:34:36.552Z,100972.84
2023-02-27T03:37:36.463Z,100980.09
2023-02-27T03:40:29.448Z,100980.74
2023-02-27T03:43:21.099Z,100984.63
2023-02-27T03:46:16.420Z,100988.51
2023-02-27T03:48:45.941Z,100988.52
2023-02-27T03:51:22.657Z,100989.55
2023-02-27T03:54:09.892Z,100993.16
2023-02-27T03:56:44.432Z,100996.48
2023-02-27T03:59:14.214Z,100997.37
2023-02-27T04:05:24.218Z,101000.68
2023-02-27T04:08:13.316Z,101003.48
2023-02-27T04:10:45.690Z,101005.81
2023-02-27T04:13:38.441Z,101005.23
2023-02-27T04:16:25.308Z,101006.62
2023-02-27T04:19:34.629Z,101013.48
2023-02-27T04:22:35.833Z,101017.95
2023-02-27T04:25:37.476Z,101017.52
2023-02-27T04:28:23.670Z,101021.77
2023-02-27T04:34:49.900Z,101020.12
2023-02-27T04:37:27.918Z,101026.13
2023-02-27T04:39:55.807Z,101025.38
2023-02-27T04:42:29.099Z,101029.22
2023-02-27T04:45:27.712Z,101028.80
2023-02-27T04:48:33.203Z,101031.23
2023-02-27T04:51:05.468Z,101036.48
2023-02-27T04:54:05.090Z,101042.17
2023-02-27T04:56:40.926Z,101044.08
2023-02-27T04:59:16.043Z,101046.20
2023-02-27T05:01:51.687Z,101050.50
2023-02-27T05:04:23.044Z,101049.95
2023-02-27T05:06:53.472Z,101049.60
2023-02-27T05:09:30.409Z,101055.20
2023-02-27T05:12:07.136Z,101057.63
2023-02-27T05:14:41.944Z,101061.89
2023-02-27T05:17:18.002Z,101062.19
2023-02-27T05:19:46.952Z,101062.16
2023-02-27T05:22:33.498Z,101072.59
2023-02-27T05:25:11.980Z,101071.52
2023-02-27T05:27:54.166Z,101070.39
2023-02-27T05:30:24.987Z,101079.59
2023-02-27T05:33:09.414Z,101080.99
2023-02-27T05:35:43.031Z,101085.67
2023-02-27T05:38:29.734Z,101090.77
2023-02-27T05:41:03.853Z,101091.40
2023-02-27T05:43:36.937Z,101091.21
2023-02-27T05:46:10.111Z,101093.05
2023-02-27T05:49:09.415Z,101092.56
2023-02-27T05:51:41.597Z,101098.07
2023-02-27T05:54:22.674Z,101101.23
2023-02-27T05:56:54.332Z,101105.88
2023-02-27T05:59:25.754Z,101104.00
2023-02-27T06:01:54.221Z,101111.10
2023-02-27T06:04:22.392Z,101114.06
2023-02-27T06:06:50.311Z,101111.04
2023-02-27T06:09:18.225Z,101116.28
2023-02-27T06:11:46.094Z,101119.38
2023-02-27T06:14:13.967Z,101120.86
2023-02-27T06:16:41.867Z,101126.93
2023-02-27T06:19:09.707Z,101135.71
2023-02-27T06:21:37.673Z,101134.20
2023-02-27T06:24:05.832Z,101130.69
2023-02-27T06:26:33.867Z,101132.23
2023-02-27T06:29:02.600Z,101134.14
2023-02-27T06:31:30.482Z,101135.69
2023-02-27T06:33:58.550Z,101135.91
2023-02-27T06:36:29.540Z,101141.59
2023-02-27T06:38:58.113Z,101141.23
2023-02-27T06:41:26.076Z,101141.19
2023-02-27T06:43:56.078Z,101142.32
2023-02-27T06:46:25.114Z,101149.27
2023-02-27T06:48:53.218Z,101152.14
2023-02-27T06:51:21.118Z,101156.92
2023-02-27T06:53:49.074Z,101160.95
2023-02-27T06:56:16.941Z,101166.53
2023-02-27T06:58:44.885Z,101168.33
2023-02-27T07:01:13.505Z,101171.09
2023-02-27T07:03:41.600Z,101179.90
2023-02-27T07:06:10.251Z,101177.72
2023-02-27T07:08:38.483Z,101180.73
2023-02-27T07:11:26.468Z,101177.90
2023-02-27T07:13:54.351Z,101181.47
2023-02-27T07:16:22.471Z,101186.42
2023-02-27T07:18:50.516Z,101186.31
2023-02-27T07:21:18.384Z,101187.47
2023-02-27T07:23:46.288Z,101191.62
2023-02-27T07:26:14.097Z,101190.73
2023-02-27T07:28:42.121Z,101193.29
2023-02-27T07:31:10.089Z,101191.35
2023-02-27T07:33:38.290Z,101189.20
2023-02-27T07:36:06.517Z,101190.91
2023-02-27T07:38:34.422Z,101191.33
2023-02-27T07:41:02.351Z,101193.92
2023-02-27T07:43:30.413Z,101198.25
2023-02-27T07:45:58.535Z,101198.31
2023-02-27T07:48:26.405Z,101192.63
2023-02-27T07:50:54.308Z,101194.33
2023-02-27T07:53:22.358Z,101194.00
2023-02-27T07:55:50.388Z,101199.44
2023-02-27T07:58:18.690Z,101201.55
2023-02-27T08:00:46.601Z,101202.43
2023-02-27T08:03:14.642Z,101196.87
2023-02-27T08:05:42.833Z,101195.52
2023-02-27T08:08:10.874Z,101198.27
2023-02-27T08:10:38.935Z,101204.77
2023-02-27T08:13:06.805Z,101205.40
2023-02-27T08:15:34.879Z,101204.41
2023-02-27T08:18:02.974Z,101205.17
2023-02-27T08:20:32.052Z,101201.95
2023-02-27T08:23:00.111Z,101203.37
2023-02-27T08:25:28.273Z,101203.23
2023-02-27T08:27:56.339Z,101210.42
2023-02-27T08:30:24.437Z,101209.45
2023-02-27T08:32:52.385Z,101212.25
2023-02-27T08:35:20.339Z,101212.32
2023-02-27T08:37:49.894Z,101212.89
2023-02-27T08:40:18.228Z,101214.57
2023-02-27T08:42:46.096Z,101218.11
2023-02-27T08:45:14.151Z,101222.19
2023-02-27T08:47:45.501Z,101222.20
2023-02-27T08:50:13.763Z,101223.33
2023-02-27T08:52:41.644Z,101222.45
2023-02-27T08:55:10.138Z,101230.05
2023-02-27T08:57:38.016Z,101231.47
2023-02-27T09:00:07.868Z,101232.81
2023-02-27T09:02:39.537Z,101235.99
2023-02-27T09:05:07.891Z,101240.51
2023-02-27T09:07:36.162Z,101238.64
2023-02-27T09:10:04.245Z,101233.30
2023-02-27T09:12:32.348Z,101234.35
2023-02-27T09:15:00.260Z,101238.95
2023-02-27T09:17:28.288Z,101246.74
2023-02-27T09:19:57.494Z,101251.48
2023-02-27T09:22:25.552Z,101251.64
2023-02-27T09:24:53.550Z,101260.31
2023-02-27T09:27:21.489Z,101255.96
2023-02-27T09:29:55.411Z,101258.36
2023-02-27T09:32:24.302Z,101257.61
2023-02-27T09:34:52.719Z,101263.71
2023-02-27T09:37:20.737Z,101270.79
2023-02-27T09:39:48.607Z,101272.18
2023-02-27T09:42:27.327Z,101275.95
2023-02-27T09:45:06.365Z,101276.98
2023-02-27T09:47:42.380Z,101283.92
2023-02-27T09:50:34.147Z,101285.92
2023-02-27T09:53:02.319Z,101288.44
2023-02-27T09:55:38.300Z,101290.23
2023-02-27T09:58:38.141Z,101294.66
2023-02-27T10:01:14.704Z,101299.21
2023-02-27T10:04:13.086Z,101300.83
2023-02-27T10:06:48.524Z,101304.23
2023-02-27T10:09:36.458Z,101308.32
2023-02-27T10:12:26.817Z,101311.63
2023-02-27T10:15:05.964Z,101317.95
2023-02-27T10:17:38.975Z,101319.04
2023-02-27T10:20:26.961Z,101315.18
2023-02-27T10:22:58.179Z,101316.83
2023-02-27T10:25:31.675Z,101321.44
2023-02-27T10:28:12.935Z,101318.42
2023-02-27T10:30:41.882Z,101316.14
2023-02-27T10:33:19.765Z,101318.20
2023-02-27T10:35:47.738Z,101313.73
2023-02-27T10:38:20.158Z,101313.02
2023-02-27T10:40:48.604Z,101317.91
2023-02-27T10:43:19.256Z,101315.95
2023-02-27T10:45:47.461Z,101319.12
2023-02-27T10:48:16.075Z,101326.09
2023-02-27T10:50:46.861Z,101328.54
2023-02-27T10:53:22.561Z,101329.98
2023-02-27T10:56:10.708Z,101329.70
2023-02-27T10:58:38.980Z,101322.89
2023-02-27T11:04:40.815Z,101320.32
2023-02-27T11:07:14.385Z,101322.71
2023-02-27T11:09:42.568Z,101323.29
2023-02-27T11:12:30.864Z,101330.75
2023-02-27T11:15:02.233Z,101333.07
2023-02-27T11:17:35.338Z,101335.83
2023-02-27T11:20:43.409Z,101337.58
2023-02-27T11:23:19.567Z,101335.86
2023-02-27T11:25:48.611Z,101337.02
2023-02-27T11:28:30.843Z,101335.60
2023-02-27T11:31:01.310Z,101340.52
2023-02-27T11:33:34.355Z,101338.73
2023-02-27T11:36:04.063Z,101344.56
2023-02-27T11:38:33.084Z,101347.39
2023-02-27T11:41:04.287Z,101347.30
2023-02-27T11:43:41.890Z,101345.05
2023-02-27T11:46:45.392Z,101344.65
2023-02-27T11:49:09.740Z,101343.77
2023-02-27T11:52:09.731Z,101348.13
2023-02-27T11:54:54.607Z,101339.92
2023-02-27T11:57:44.154Z,101339.80
2023-02-27T12:00:30.975Z,101343.23
2023-02-27T12:03:21.031Z,101341.82
2023-02-27T12:05:57.620Z,101336.72
2023-02-27T12:08:37.666Z,101341.02
2023-02-27T12:11:28.365Z,101339.80
2023-02-27T12:14:08.685Z,101341.54
2023-02-27T12:16:42.487Z,101350.86
2023-02-27T12:19:22.909Z,101357.10
2023-02-27T12:21:57.211Z,101357.14
2023-02-27T12:24:43.992Z,101362.67
2023-02-27T12:27:25.746Z,101360.39
2023-02-27T12:29:53.666Z,101357.77
2023-02-27T12:32:31.869Z,101360.08
2023-02-27T12:35:18.136Z,101361.67
2023-02-27T12:37:46.199Z,101364.95
2023-02-27T12:40:17.188Z,101364.75
2023-02-27T12:43:02.211Z,101366.67
2023-02-27T12:45:48.468Z,101366.30
2023-02-27T12:48:55.452Z,101367.84
2023-02-27T12:51:56.833Z,101370.68
2023-02-27T12:54:57.003Z,101375.90
2023-02-27T12:57:36.345Z,101374.97
2023-02-27T13:00:17.557Z,101383.63
2023-02-27T13:02:55.463Z,101382.90
2023-02-27T13:05:53.494Z,101377.65
2023-02-27T13:08:45.989Z,101378.71
2023-02-27T13:11:36.172Z,101382.14
2023-02-27T13:14:33.338Z,101381.46
2023-02-27T13:17:10.844Z,101387.59
2023-02-27T13:19:53.101Z,101384.58
2023-02-27T13:22:20.885Z,101389.24
2023-02-27T13:24:56.449Z,101385.88
2023-02-27T13:27:40.502Z,101390.95
2023-02-27T13:30:37.021Z,101395.61
2023-02-27T13:33:08.084Z,101392.23
2023-02-27T13:35:52.023Z,101392.66
2023-02-27T13:38:44.329Z,101400.22
2023-02-27T13:41:21.585Z,101398.42
2023-02-27T13:44:01.357Z,101400.97
2023-02-27T13:46:33.859Z,101399.29
2023-02-27T13:49:05.240Z,101395.95
2023-02-27T13:51:36.625Z,101398.58
2023-02-27T13:54:13.723Z,101396.52
2023-02-27T13:56:59.517Z,101399.25
2023-02-27T13:59:33.779Z,101404.98
2023-02-27T14:02:01.895Z,101406.23
2023-02-27T14:04:34.338Z,101406.90
2023-02-27T14:07:11.301Z,101406.25
2023-02-27T14:09:45.957Z,101408.77
2023-02-27T14:12:44.507Z,101406.46
2023-02-27T14:15:22.692Z,101407.58
2023-02-27T14:18:02.466Z,101410.31
2023-02-27T14:20:40.373Z,101413.12
2023-02-27T14:23:17.309Z,101419.38
2023-02-27T14:25:53.816Z,101418.70
2023-02-27T14:28:30.466Z,101419.91
2023-02-27T14:31:06.160Z,101415.53
2023-02-27T14:33:50.617Z,101417.98
2023-02-27T14:36:24.854Z,101417.11
2023-02-27T14:39:01.633Z,101418.46
2023-02-27T14:41:49.577Z,101417.05
2023-02-27T14:44:23.929Z,101421.74
2023-02-27T14:46:54.821Z,101428.64
2023-02-27T14:49:34.896Z,101426.45
2023-02-27T14:52:13.317Z,101427.36
2023-02-27T14:54:42.273Z,101425.83
2023-02-27T14:57:21.740Z,101430.33
2023-02-27T14:59:54.112Z,101430.20
2023-02-27T15:02:24.279Z,101434.01
2023-02-27T15:05:16.714Z,101435.72
2023-02-27T15:07:53.980Z,101434.98
2023-02-27T15:10:33.560Z,101439.50
2023-02-27T15:13:02.779Z,101444.81
2023-02-27T15:15:32.018Z,101440.58
2023-02-27T15:18:01.228Z,101447.32
2023-02-27T15:20:35.722Z,101448.64
2023-02-27T15:23:26.191Z,101456.40
2023-02-27T15:25:57.544Z,101451.35
2023-02-27T15:28:32.419Z,101454.46
2023-02-27T15:31:03.713Z,101465.16
2023-02-27T15:33:33.772Z,101466.35
2023-02-27T15:36:02.243Z,101469.17
2023-02-27T15:38:34.381Z,101473.45
2023-02-27T15:41:04.078Z,101473.06
2023-02-27T15:43:32.522Z,101475.64
2023-02-27T15:46:01.036Z,101476.14
2023-02-27T15:48:30.189Z,101479.37
2023-02-27T15:51:02.121Z,101486.80
2023-02-27T15:53:31.061Z,101493.44
2023-02-27T15:56:02.089Z,101498.33
2023-02-27T15:58:33.474Z,101505.45
2023-02-27T16:01:15.393Z,101514.75
2023-02-27T16:03:46.605Z,101516.51
2023-02-27T16:06:27.025Z,101518.06
2023-02-27T16:08:59.058Z,101520.33
2023-02-27T16:11:33.219Z,101529.40
2023-02-27T16:14:01.862Z,101534.20
2023-02-27T16:16:36.087Z,101534.75
2023-02-27T16:19:27.042Z,101538.27
2023-02-27T16:22:06.669Z,101542.77
2023-02-27T16:24:34.824Z,101545.63
2023-02-27T16:27:03.152Z,101546.48
2023-02-27T16:29:36.959Z,101544.24
2023-02-27T16:32:05.068Z,101550.35
2023-02-27T16:34:46.805Z,101550.56
2023-02-27T16:37:43.159Z,101554.61
2023-02-27T16:40:23.240Z,101557.92
2023-02-27T16:42:52.548Z,101564.23
2023-02-27T16:45:23.973Z,101568.64
2023-02-27T16:47:57.410Z,101574.67
2023-02-27T16:50:39.792Z,101582.82
2023-02-27T16:53:08.967Z,101587.38
2023-02-27T16:55:43.359Z,101586.17
2023-02-27T16:58:16.126Z,101586.36
2023-02-27T17:00:44.041Z,101593.27
2023-02-27T17:03:11.891Z,101593.91
2023-02-27T17:05:41.131Z,101594.69
2023-02-27T17:08:11.119Z,101596.89
2023-02-27T17:10:39.193Z,101594.51
2023-02-27T17:13:07.110Z,101597.81
2023-02-27T17:15:35.251Z,101602.65
2023-02-27T17:18:03.290Z,101607.20
2023-02-27T17:20:31.588Z,101614.34
2023-02-27T17:22:59.568Z,101616.30
2023-02-27T17:25:28.055Z,101619.48
2023-02-27T17:27:56.093Z,101624.87
2023-02-27T17:30:23.984Z,101629.92
2023-02-27T17:32:51.988Z,101633.83
2023-02-27T17:35:20.120Z,101641.04
2023-02-27T17:37:48.091Z,101640.84
2023-02-27T17:40:16.178Z,101643.21
2023-02-27T17:42:45.563Z,101644.95
2023-02-27T17:45:14.612Z,101652.25
2023-02-27T17:47:44.184Z,101650.36
2023-02-27T17:50:13.451Z,101649.06
2023-02-27T17:52:41.733Z,101652.55
2023-02-27T17:55:10.517Z,101651.91
2023-02-27T17:57:39.537Z,101652.70
2023-02-27T18:00:10.683Z,101652.70
2023-02-27T18:02:38.644Z,101652.47
2023-02-27T18:05:07.263Z,101657.52
2023-02-27T18:07:35.464Z,101658.67
2023-02-27T18:10:05.803Z,101660.28
2023-02-27T18:12:34.374Z,101662.33
2023-02-27T18:15:03.383Z,101664.77
2023-02-27T18:17:31.728Z,101662.52
2023-02-27T18:20:00.221Z,101658.35
2023-02-27T18:22:30.004Z,101660.86
2023-02-27T18:24:58.803Z,101665.10
2023-02-27T18:27:28.300Z,101666.58
2023-02-27T18:29:57.711Z,101668.63
2023-02-27T18:32:25.935Z,101668.69
2023-02-27T18:34:54.162Z,101671.16
2023-02-27T18:37:22.238Z,101666.60
2023-02-27T18:39:50.134Z,101673.11
2023-02-27T18:42:18.120Z,101672.70
2023-02-27T18:44:48.188Z,101673.38
2023-02-27T18:47:16.152Z,101681.15
2023-02-27T18:49:44.293Z,101681.53
2023-02-27T18:52:12.350Z,101679.63
2023-02-27T18:54:42.497Z,101679.70
2023-02-27T18:57:10.901Z,101678.83
2023-02-27T18:59:41.324Z,101682.70
2023-02-27T19:04:36.796Z,101682.09
2023-02-27T19:07:04.762Z,101686.79
2023-02-27T19:09:32.952Z,101682.73
2023-02-27T19:12:01.288Z,101683.95
2023-02-27T19:14:29.390Z,101682.23
2023-02-27T19:17:00.381Z,101686.75
2023-02-27T19:19:28.668Z,101688.94
2023-02-27T19:21:56.957Z,101686.22
2023-02-27T19:24:25.480Z,101679.82
2023-02-27T19:26:53.707Z,101683.22
2023-02-27T19:29:21.810Z,101681.48
2023-02-27T19:31:50.757Z,101684.66
2023-02-27T19:34:19.037Z,101687.90
2023-02-27T19:36:47.133Z,101691.14
2023-02-27T19:39:15.253Z,101695.60
2023-02-27T19:41:43.332Z,101697.30
2023-02-27T19:44:12.233Z,101701.42
2023-02-27T19:46:41.398Z,101699.73
2023-02-27T19:49:10.275Z,101699.60
2023-02-27T19:51:38.897Z,101699.28
2023-02-27T19:54:07.403Z,101701.11
2023-02-27T19:56:35.333Z,101703.15
2023-02-27T19:59:03.358Z,101705.66
2023-02-27T20:01:34.394Z,101706.38
2023-02-27T20:04:03.554Z,101708.96
2023-02-27T20:06:41.705Z,101714.44
2023-02-27T20:09:14.469Z,101717.09
2023-02-27T20:11:43.882Z,101715.23
2023-02-27T20:14:14.116Z,101711.73
2023-02-27T20:16:42.504Z,101712.20
2023-02-27T20:19:14.127Z,101710.97
2023-02-27T20:21:43.167Z,101711.85
2023-02-27T20:24:11.423Z,101712.77
2023-02-27T20:26:42.518Z,101715.32
2023-02-27T20:29:23.444Z,101714.17
2023-02-27T20:31:52.863Z,101717.48
2023-02-27T20:34:24.875Z,101720.02
2023-02-27T20:36:55.224Z,101722.20
2023-02-27T20:39:24.447Z,101720.77
2023-02-27T20:41:52.389Z,101721.05
2023-02-27T20:44:20.363Z,101721.42
2023-02-27T20:46:49.522Z,101725.13
2023-02-27T20:49:18.356Z,101723.77
2023-02-27T20:51:46.610Z,101722.52
2023-02-27T20:54:20.422Z,101721.36
2023-02-27T20:56:52.167Z,101725.02
2023-02-27T20:59:22.389Z,101726.67
2023-02-27T21:01:53.210Z,101724.84
2023-02-27T21:04:24.529Z,101730.06
2023-02-27T21:06:53.147Z,101731.27
2023-02-27T21:09:21.090Z,101734.15
2023-02-27T21:11:49.119Z,101736.45
2023-02-27T21:14:17.022Z,101738.46
2023-02-27T21:16:45.149Z,101742.23
2023-02-27T21:19:13.152Z,101745.51
2023-02-27T21:21:41.042Z,101748.46
2023-02-27T21:24:08.891Z,101744.61
2023-02-27T21:26:38.918Z,101741.55
2023-02-27T21:29:08.740Z,101744.06
2023-02-27T21:31:37.675Z,101738.70
2023-02-27T21:34:09.050Z,101739.55
2023-02-27T21:36:42.386Z,101738.71
2023-02-27T21:39:19.587Z,101743.21
2023-02-27T21:41:49.257Z,101745.01
2023-02-27T21:44:20.619Z,101750.62
2023-02-27T21:46:48.570Z,101751.92
2023-02-27T21:49:25.707Z,101755.35
2023-02-27T21:51:55.211Z,101760.39
2023-02-27T21:54:23.790Z,101762.67
2023-02-27T21:56:51.789Z,101766.77
2023-02-27T21:59:20.769Z,101768.14
2023-02-27T22:01:49.286Z,101769.70
2023-02-27T22:04:19.902Z,101773.38
2023-02-27T22:06:49.502Z,101773.36
2023-02-27T22:09:20.558Z,101772.62
2023-02-27T22:11:49.492Z,101774.04
2023-02-27T22:14:17.952Z,101777.91
2023-02-27T22:16:46.148Z,101775.27
2023-02-27T22:19:22.000Z,101776.75
2023-02-27T22:21:50.092Z,101781.35
2023-02-27T22:24:18.365Z,101780.15
2023-02-27T22:26:47.839Z,101778.73
2023-02-27T22:29:17.199Z,101775.77
2023-02-27T22:31:45.915Z,101776.18
2023-02-27T22:34:18.404Z,101778.58
2023-02-27T22:36:52.727Z,101777.48
2023-02-27T22:39:21.522Z,101781.38
2023-02-27T22:41:49.767Z,101785.20
2023-02-27T22:44:19.199Z,101783.51
2023-02-27T22:46:49.194Z,101783.59
2023-02-27T22:49:22.464Z,101790.24
2023-02-27T22:51:52.161Z,101787.94
2023-02-27T22:54:22.353Z,101786.90
2023-02-27T22:56:52.312Z,101786.48
2023-02-27T22:59:21.400Z,101783.88
2023-02-27T23:01:50.453Z,101784.46
2023-02-27T23:04:18.646Z,101787.14
2023-02-27T23:06:46.700Z,101785.88
2023-02-27T23:09:18.387Z,101789.17
2023-02-27T23:11:46.725Z,101789.35
2023-02-27T23:14:15.262Z,101790.45
2023-02-27T23:16:46.716Z,101793.27
2023-02-27T23:19:17.052Z,101796.52
2023-02-27T23:21:45.155Z,101799.63
2023-02-27T23:24:15.765Z,101798.41
2023-02-27T23:26:46.871Z,101797.58
2023-02-27T23:29:15.648Z,101802.19
2023-02-27T23:31:43.620Z,101799.61
2023-02-27T23:34:11.588Z,101795.20
2023-02-27T23:36:40.838Z,101795.45
2023-02-27T23:39:08.948Z,101796.90
2023-02-27T23:41:36.893Z,101800.82
2023-02-27T23:44:04.900Z,101803.19
2023-02-27T23:46:32.983Z,101804.70
2023-02-27T23:49:01.966Z,101803.89
2023-02-27T23:51:31.088Z,101805.19
2023-02-27T23:53:59.982Z,101801.92
2023-02-27T23:56:30.444Z,101800.39
2023-02-27T23:59:01.757Z,101805.19
